createdAt,value
2022-09-03T00:00:19.626Z,0.68
2022-09-03T00:03:02.612Z,0.90
2022-09-03T00:05:41.712Z,0.60
2022-09-03T00:08:18.750Z,0.57
2022-09-03T00:10:56.821Z,0.63
2022-09-03T00:13:30.788Z,0.82
2022-09-03T00:15:59.777Z,0.82
2022-09-03T00:18:31.346Z,0.70
2022-09-03T00:21:09.241Z,0.73
2022-09-03T00:23:40.491Z,0.60
2022-09-03T00:26:13.049Z,0.70
2022-09-03T00:28:47.672Z,0.60
2022-09-03T00:31:42.804Z,0.70
2022-09-03T00:34:32.534Z,0.73
2022-09-03T00:36:59.077Z,0.73
2022-09-03T00:39:27.781Z,0.60
2022-09-03T00:42:20.990Z,0.60
2022-09-03T00:45:25.540Z,0.60
2022-09-03T00:48:12.449Z,0.70
2022-09-03T00:51:14.743Z,0.57
2022-09-03T00:54:19.798Z,0.50
2022-09-03T00:56:56.409Z,0.60
2022-09-03T00:59:42.859Z,0.45
2022-09-03T01:02:31.185Z,0.47
2022-09-03T01:05:11.850Z,0.60
2022-09-03T01:07:54.596Z,0.55
2022-09-03T01:10:38.645Z,0.57
2022-09-03T01:13:14.556Z,0.60
2022-09-03T01:15:59.498Z,0.73
2022-09-03T01:18:38.029Z,0.60
2022-09-03T01:21:13.547Z,0.70
2022-09-03T01:24:31.782Z,0.70
2022-09-03T01:27:27.011Z,0.90
2022-09-03T01:30:04.266Z,1.00
2022-09-03T01:32:38.496Z,0.45
2022-09-03T01:35:15.154Z,0.68
2022-09-03T01:37:58.390Z,0.70
2022-09-03T01:40:39.198Z,0.55
2022-09-03T01:43:42.165Z,0.70
2022-09-03T01:46:23.617Z,0.70
2022-09-03T01:48:53.736Z,0.70
2022-09-03T01:51:23.971Z,0.43
2022-09-03T01:54:21.827Z,0.50
2022-09-03T01:57:26.432Z,0.50
2022-09-03T02:00:20.577Z,0.50
2022-09-03T02:02:51.301Z,0.60
2022-09-03T02:05:26.993Z,0.50
2022-09-03T02:08:01.455Z,0.43
2022-09-03T02:10:41.564Z,0.70
2022-09-03T02:13:28.717Z,0.50
2022-09-03T02:16:01.679Z,0.70
2022-09-03T02:18:41.362Z,0.40
2022-09-03T02:21:10.692Z,0.68
2022-09-03T02:23:40.722Z,0.50
2022-09-03T02:26:10.074Z,0.57
2022-09-03T02:28:37.169Z,0.60
2022-09-03T02:31:04.480Z,0.52
2022-09-03T02:33:38.474Z,0.60
2022-09-03T02:36:07.710Z,0.68
2022-09-03T02:38:34.831Z,0.50
2022-09-03T02:41:01.689Z,0.80
2022-09-03T02:43:40.969Z,0.65
2022-09-03T02:46:12.956Z,0.63
2022-09-03T02:48:39.529Z,0.80
2022-09-03T02:51:13.549Z,0.70
2022-09-03T02:53:40.635Z,0.40
2022-09-03T02:56:07.262Z,0.82
2022-09-03T02:58:34.017Z,0.50
2022-09-03T03:01:01.131Z,0.80
2022-09-03T03:03:27.987Z,0.75
2022-09-03T03:05:57.897Z,0.60
2022-09-03T03:08:27.705Z,0.60
2022-09-03T03:11:00.708Z,0.70
2022-09-03T03:13:29.116Z,0.50
2022-09-03T03:15:57.325Z,0.57
2022-09-03T03:18:24.141Z,0.52
2022-09-03T03:20:51.434Z,0.50
2022-09-03T03:23:18.082Z,0.40
2022-09-03T03:25:44.809Z,0.60
2022-09-03T03:28:11.401Z,0.70
2022-09-03T03:30:40.277Z,0.60
2022-09-03T03:33:07.284Z,0.50
2022-09-03T03:35:33.939Z,0.63
2022-09-03T03:38:00.505Z,0.63
2022-09-03T03:40:27.197Z,0.80
2022-09-03T03:42:54.562Z,0.60
2022-09-03T03:45:21.337Z,0.50
2022-09-03T03:47:48.031Z,0.73
2022-09-03T03:50:14.525Z,0.70
2022-09-03T03:52:41.013Z,0.70
2022-09-03T03:55:07.872Z,0.63
2022-09-03T03:57:34.408Z,0.80
2022-09-03T04:00:01.084Z,0.70
2022-09-03T04:02:40.923Z,0.50
2022-09-03T04:05:07.860Z,0.70
2022-09-03T04:07:34.933Z,0.60
2022-09-03T04:10:01.690Z,0.77
2022-09-03T04:12:28.299Z,0.82
2022-09-03T04:14:54.826Z,0.50
2022-09-03T04:17:25.143Z,0.70
2022-09-03T04:19:52.126Z,0.70
2022-09-03T04:22:19.619Z,0.70
2022-09-03T04:24:46.262Z,0.50
2022-09-03T04:27:12.793Z,0.68
2022-09-03T04:29:39.326Z,0.77
2022-09-03T04:32:24.740Z,0.50
2022-09-03T04:34:51.252Z,0.60
2022-09-03T04:37:19.899Z,0.65
2022-09-03T04:39:46.743Z,0.75
2022-09-03T04:42:13.321Z,0.65
2022-09-03T04:44:41.321Z,0.75
2022-09-03T04:47:08.048Z,0.60
2022-09-03T04:49:34.856Z,1.00
2022-09-03T04:52:02.608Z,0.80
2022-09-03T04:54:29.493Z,0.60
2022-09-03T04:56:56.588Z,0.80
2022-09-03T04:59:23.117Z,0.90
2022-09-03T05:01:49.730Z,0.70
2022-09-03T05:04:16.397Z,0.55
2022-09-03T05:06:43.451Z,0.60
2022-09-03T05:09:09.959Z,0.60
2022-09-03T05:11:36.622Z,0.70
2022-09-03T05:14:05.746Z,0.57
2022-09-03T05:16:32.423Z,0.70
2022-09-03T05:19:00.845Z,0.75
2022-09-03T05:21:28.587Z,0.70
2022-09-03T05:23:55.502Z,0.57
2022-09-03T05:26:26.644Z,0.63
2022-09-03T05:28:58.984Z,1.00
2022-09-03T05:31:28.247Z,0.90
2022-09-03T05:33:58.562Z,0.77
2022-09-03T05:36:27.406Z,0.90
2022-09-03T05:38:54.764Z,0.73
2022-09-03T05:41:23.167Z,0.90
2022-09-03T05:43:59.168Z,1.10
2022-09-03T05:46:32.254Z,0.77
2022-09-03T05:49:02.408Z,0.70
2022-09-03T05:51:30.220Z,0.90
2022-09-03T05:53:58.027Z,0.90
2022-09-03T05:56:26.965Z,0.75
2022-09-03T05:58:56.879Z,0.80
2022-09-03T06:01:24.809Z,0.95
2022-09-03T06:03:57.789Z,0.95
2022-09-03T06:06:25.649Z,0.80
2022-09-03T06:08:53.552Z,0.90
2022-09-03T06:11:20.750Z,0.80
2022-09-03T06:13:47.561Z,0.73
2022-09-03T06:16:14.158Z,0.85
2022-09-03T06:18:40.828Z,1.05
2022-09-03T06:21:08.289Z,0.98
2022-09-03T06:23:36.277Z,0.90
2022-09-03T06:26:13.881Z,1.00
2022-09-03T06:28:43.647Z,0.90
2022-09-03T06:31:15.580Z,0.80
2022-09-03T06:33:43.312Z,0.90
2022-09-03T06:36:15.451Z,1.00
2022-09-03T06:38:43.055Z,1.00
2022-09-03T06:41:13.463Z,0.80
2022-09-03T06:43:42.192Z,0.70
2022-09-03T06:46:12.424Z,0.90
2022-09-03T06:48:45.539Z,1.05
2022-09-03T06:51:17.817Z,1.05
2022-09-03T06:53:47.917Z,0.95
2022-09-03T06:56:25.977Z,0.80
2022-09-03T06:58:57.802Z,0.90
2022-09-03T07:01:31.200Z,1.10
2022-09-03T07:04:05.400Z,1.02
2022-09-03T07:06:37.111Z,1.10
2022-09-03T07:09:04.130Z,1.00
2022-09-03T07:11:33.329Z,0.90
2022-09-03T07:14:00.481Z,1.08
2022-09-03T07:16:30.514Z,1.27
2022-09-03T07:18:57.612Z,0.95
2022-09-03T07:21:27.026Z,1.00
2022-09-03T07:23:55.199Z,0.90
2022-09-03T07:26:24.219Z,1.00
2022-09-03T07:28:52.175Z,1.23
2022-09-03T07:31:26.352Z,1.00
2022-09-03T07:33:57.186Z,0.82
2022-09-03T07:36:26.288Z,1.20
2022-09-03T07:38:59.155Z,1.23
2022-09-03T07:41:29.149Z,1.00
2022-09-03T07:43:57.101Z,1.08
2022-09-03T07:46:26.503Z,0.88
2022-09-03T07:48:58.385Z,1.13
2022-09-03T07:51:27.856Z,1.00
2022-09-03T07:53:57.809Z,1.25
2022-09-03T07:56:25.792Z,1.00
2022-09-03T07:58:53.188Z,1.15
2022-09-03T08:01:21.781Z,1.02
2022-09-03T08:03:50.272Z,0.95
2022-09-03T08:06:18.797Z,0.80
2022-09-03T08:08:45.713Z,0.93
2022-09-03T08:11:17.347Z,1.25
2022-09-03T08:13:46.513Z,1.00
2022-09-03T08:16:14.380Z,1.23
2022-09-03T08:18:41.296Z,0.98
2022-09-03T08:21:15.404Z,0.90
2022-09-03T08:23:44.355Z,0.95
2022-09-03T08:26:11.949Z,0.82
2022-09-03T08:28:39.364Z,0.98
2022-09-03T08:31:07.026Z,1.02
2022-09-03T08:33:40.592Z,1.02
2022-09-03T08:36:15.881Z,0.90
2022-09-03T08:38:46.290Z,0.95
2022-09-03T08:41:23.665Z,0.90
2022-09-03T08:44:27.960Z,0.93
2022-09-03T08:47:48.432Z,0.80
2022-09-03T08:50:19.255Z,0.63
2022-09-03T08:52:50.012Z,0.90
2022-09-03T08:55:27.072Z,0.85
2022-09-03T08:58:15.635Z,1.00
2022-09-03T09:00:50.300Z,0.80
2022-09-03T09:04:00.490Z,1.17
2022-09-03T09:06:50.255Z,0.70
2022-09-03T09:09:28.425Z,0.80
2022-09-03T09:12:10.133Z,0.80
2022-09-03T09:14:58.492Z,0.90
2022-09-03T09:17:27.973Z,0.93
2022-09-03T09:20:10.002Z,1.00
2022-09-03T09:22:47.414Z,0.75
2022-09-03T09:25:20.499Z,0.90
2022-09-03T09:27:52.233Z,1.00
2022-09-03T09:30:19.868Z,0.90
2022-09-03T09:32:47.295Z,0.88
2022-09-03T09:35:17.429Z,0.80
2022-09-03T09:37:55.223Z,1.00
2022-09-03T09:40:45.004Z,0.80
2022-09-03T09:43:21.489Z,0.70
2022-09-03T09:45:50.385Z,0.60
2022-09-03T09:48:27.120Z,1.48
2022-09-03T09:51:06.416Z,0.82
2022-09-03T09:53:33.501Z,1.00
2022-09-03T09:56:00.487Z,0.90
2022-09-03T09:58:30.874Z,0.68
2022-09-03T10:01:13.085Z,0.75
2022-09-03T10:03:48.485Z,1.13
2022-09-03T10:06:35.313Z,1.13
2022-09-03T10:09:14.121Z,0.65
2022-09-03T10:11:45.097Z,0.77
2022-09-03T10:14:24.442Z,0.77
2022-09-03T10:17:00.116Z,0.80
2022-09-03T10:19:40.399Z,0.82
2022-09-03T10:22:13.184Z,1.10
2022-09-03T10:24:58.124Z,0.70
2022-09-03T10:27:25.906Z,0.75
2022-09-03T10:29:53.404Z,0.80
2022-09-03T10:32:51.210Z,0.70
2022-09-03T10:35:29.166Z,0.60
2022-09-03T10:38:06.347Z,0.77
2022-09-03T10:40:57.126Z,0.65
2022-09-03T10:43:55.748Z,0.60
2022-09-03T10:46:27.656Z,0.60
2022-09-03T10:49:17.879Z,0.65
2022-09-03T10:52:15.613Z,0.73
2022-09-03T10:55:15.146Z,0.82
2022-09-03T10:58:23.989Z,0.60
2022-09-03T11:01:01.988Z,0.90
2022-09-03T11:03:48.182Z,0.70
2022-09-03T11:06:43.655Z,0.80
2022-09-03T11:09:26.617Z,0.63
2022-09-03T11:12:01.783Z,0.77
2022-09-03T11:15:05.243Z,0.90
2022-09-03T11:17:46.817Z,0.63
2022-09-03T11:20:25.065Z,0.73
2022-09-03T11:23:00.045Z,0.70
2022-09-03T11:25:36.136Z,0.68
2022-09-03T11:28:21.214Z,0.50
2022-09-03T11:31:38.339Z,0.60
2022-09-03T11:34:23.674Z,0.90
2022-09-03T11:37:24.130Z,0.68
2022-09-03T11:39:59.820Z,0.70
2022-09-03T11:42:45.256Z,0.70
2022-09-03T11:45:30.078Z,0.60
2022-09-03T11:47:57.013Z,0.90
2022-09-03T11:50:26.668Z,0.90
2022-09-03T11:53:12.980Z,0.63
2022-09-03T11:56:00.721Z,0.75
2022-09-03T11:58:35.166Z,0.65
2022-09-03T12:01:04.281Z,0.80
2022-09-03T12:04:05.485Z,0.90
2022-09-03T12:06:46.943Z,0.60
2022-09-03T12:09:53.722Z,0.80
2022-09-03T12:12:57.228Z,0.73
2022-09-03T12:15:55.068Z,0.80
2022-09-03T12:18:25.659Z,0.63
2022-09-03T12:21:01.188Z,0.57
2022-09-03T12:23:45.010Z,0.80
2022-09-03T12:26:17.435Z,0.80
2022-09-03T12:29:05.931Z,0.70
2022-09-03T12:31:48.476Z,0.50
2022-09-03T12:34:17.490Z,0.60
2022-09-03T12:36:49.352Z,0.52
2022-09-03T12:39:18.071Z,0.73
2022-09-03T12:42:05.738Z,0.65
2022-09-03T12:44:33.398Z,0.75
2022-09-03T12:47:35.537Z,0.80
2022-09-03T12:50:07.870Z,0.60
2022-09-03T12:52:39.182Z,0.63
2022-09-03T12:55:08.436Z,1.00
2022-09-03T12:57:40.709Z,0.68
2022-09-03T13:00:10.451Z,1.00
2022-09-03T13:02:53.426Z,0.70
2022-09-03T13:05:35.146Z,0.73
2022-09-03T13:08:07.078Z,0.70
2022-09-03T13:10:41.980Z,0.68
2022-09-03T13:13:28.010Z,0.82
2022-09-03T13:16:09.943Z,0.80
2022-09-03T13:19:03.908Z,0.90
2022-09-03T13:21:36.009Z,0.82
2022-09-03T13:24:20.196Z,0.80
2022-09-03T13:26:55.753Z,0.98
2022-09-03T13:29:43.600Z,0.73
2022-09-03T13:32:29.103Z,0.90
2022-09-03T13:35:09.140Z,0.50
2022-09-03T13:37:45.537Z,0.80
2022-09-03T13:40:18.137Z,0.80
2022-09-03T13:43:02.809Z,1.00
2022-09-03T13:45:37.646Z,1.00
2022-09-03T13:48:29.357Z,0.90
2022-09-03T13:51:22.319Z,0.98
2022-09-03T13:54:22.327Z,0.73
2022-09-03T13:57:02.471Z,0.80
2022-09-03T13:59:50.790Z,0.70
2022-09-03T14:02:52.643Z,0.80
2022-09-03T14:05:42.197Z,1.20
2022-09-03T14:08:14.507Z,0.90
2022-09-03T14:11:20.376Z,0.70
2022-09-03T14:14:03.168Z,0.90
2022-09-03T14:16:55.596Z,0.90
2022-09-03T14:19:39.151Z,0.90
2022-09-03T14:22:24.590Z,0.95
2022-09-03T14:25:01.337Z,0.80
2022-09-03T14:27:30.742Z,0.90
2022-09-03T14:30:17.996Z,0.88
2022-09-03T14:32:56.434Z,0.80
2022-09-03T14:35:38.541Z,1.00
2022-09-03T14:38:30.594Z,0.90
2022-09-03T14:41:05.804Z,0.80
2022-09-03T14:44:00.068Z,0.90
2022-09-03T14:46:35.527Z,1.00
2022-09-03T14:50:03.800Z,0.80
2022-09-03T14:52:57.971Z,0.80
2022-09-03T14:55:33.364Z,0.70
2022-09-03T14:58:29.412Z,0.90
2022-09-03T15:01:02.675Z,0.82
2022-09-03T15:04:24.427Z,0.90
2022-09-03T15:07:27.779Z,0.90
2022-09-03T15:10:04.882Z,0.90
2022-09-03T15:12:43.195Z,1.05
2022-09-03T15:15:24.735Z,1.10
2022-09-03T15:18:05.077Z,1.10
2022-09-03T15:20:52.883Z,0.85
2022-09-03T15:23:41.179Z,0.80
2022-09-03T15:26:25.800Z,0.85
2022-09-03T15:29:27.377Z,1.10
2022-09-03T15:32:06.108Z,0.93
2022-09-03T15:35:23.771Z,1.08
2022-09-03T15:37:58.694Z,1.05
2022-09-03T15:40:33.223Z,1.10
2022-09-03T15:43:33.862Z,0.93
2022-09-03T15:46:13.562Z,1.25
2022-09-03T15:48:59.646Z,1.02
2022-09-03T15:51:43.107Z,1.60
2022-09-03T15:54:37.401Z,1.30
2022-09-03T15:57:12.436Z,1.00
2022-09-03T15:59:57.090Z,0.88
2022-09-03T16:02:34.001Z,1.23
2022-09-03T16:05:45.697Z,1.35
2022-09-03T16:08:49.553Z,4.80
2022-09-03T16:11:24.959Z,0.85
2022-09-03T16:14:17.661Z,1.10
2022-09-03T16:17:10.198Z,1.20
2022-09-03T16:19:59.780Z,1.10
2022-09-03T16:22:29.471Z,1.00
2022-09-03T16:25:16.812Z,1.10
2022-09-03T16:28:05.508Z,1.00
2022-09-03T16:30:58.660Z,0.93
2022-09-03T16:33:48.943Z,1.05
2022-09-03T16:37:14.824Z,1.02
2022-09-03T16:40:05.960Z,1.23
2022-09-03T16:43:01.375Z,1.10
2022-09-03T16:46:02.456Z,0.90
2022-09-03T16:48:35.599Z,1.00
2022-09-03T16:51:08.157Z,0.85
2022-09-03T16:54:09.176Z,1.38
2022-09-03T16:56:50.989Z,1.10
2022-09-03T16:59:58.963Z,0.90
2022-09-03T17:02:40.652Z,1.10
2022-09-03T17:05:40.525Z,1.00
2022-09-03T17:08:31.142Z,1.23
2022-09-03T17:11:30.152Z,1.08
2022-09-03T17:14:35.747Z,1.40
2022-09-03T17:17:34.469Z,1.10
2022-09-03T17:20:21.380Z,1.15
2022-09-03T17:23:05.760Z,1.30
2022-09-03T17:25:38.112Z,1.40
2022-09-03T17:28:42.462Z,1.00
2022-09-03T17:31:24.192Z,1.30
2022-09-03T17:34:00.120Z,1.20
2022-09-03T17:36:31.475Z,1.52
2022-09-03T17:39:16.827Z,1.58
2022-09-03T17:42:06.450Z,1.30
2022-09-03T17:45:21.788Z,1.02
2022-09-03T17:48:18.991Z,1.42
2022-09-03T17:51:32.043Z,1.55
2022-09-03T17:54:23.460Z,1.27
2022-09-03T17:57:10.596Z,1.33
2022-09-03T17:59:56.034Z,1.10
2022-09-03T18:02:30.101Z,1.50
2022-09-03T18:05:19.672Z,1.48
2022-09-03T18:08:00.660Z,1.83
2022-09-03T18:10:43.196Z,1.90
2022-09-03T18:13:48.506Z,1.52
2022-09-03T18:16:28.608Z,1.73
2022-09-03T18:19:06.585Z,1.70
2022-09-03T18:21:57.442Z,1.42
2022-09-03T18:25:03.661Z,1.20
2022-09-03T18:28:17.943Z,1.55
2022-09-03T18:31:03.949Z,1.38
2022-09-03T18:33:49.232Z,1.42
2022-09-03T18:36:34.089Z,1.40
2022-09-03T18:39:34.490Z,1.70
2022-09-03T18:42:37.501Z,1.50
2022-09-03T18:46:07.919Z,1.58
2022-09-03T18:49:13.643Z,1.83
2022-09-03T18:52:11.514Z,1.30
2022-09-03T18:55:22.215Z,1.60
2022-09-03T18:58:12.980Z,1.52
2022-09-03T19:01:14.457Z,1.35
2022-09-03T19:04:08.310Z,1.38
2022-09-03T19:07:09.416Z,1.33
2022-09-03T19:10:07.703Z,1.52
2022-09-03T19:13:12.916Z,1.52
2022-09-03T19:16:13.429Z,1.55
2022-09-03T19:19:15.646Z,1.60
2022-09-03T19:22:11.677Z,1.30
2022-09-03T19:24:56.885Z,1.55
2022-09-03T19:27:58.889Z,1.30
2022-09-03T19:30:56.856Z,1.45
2022-09-03T19:33:55.253Z,1.33
2022-09-03T19:37:09.274Z,1.60
2022-09-03T19:40:21.888Z,1.75
2022-09-03T19:43:45.424Z,1.30
2022-09-03T19:46:41.286Z,1.48
2022-09-03T19:50:00.679Z,1.42
2022-09-03T19:53:07.941Z,1.52
2022-09-03T19:55:57.877Z,1.17
2022-09-03T19:58:47.401Z,1.70
2022-09-03T20:01:32.737Z,1.92
2022-09-03T20:04:22.332Z,1.83
2022-09-03T20:07:07.296Z,1.50
2022-09-03T20:09:58.908Z,1.77
2022-09-03T20:12:29.963Z,1.73
2022-09-03T20:14:56.594Z,1.60
2022-09-03T20:17:36.458Z,1.48
2022-09-03T20:20:15.206Z,1.38
2022-09-03T20:22:53.847Z,1.40
2022-09-03T20:25:58.159Z,1.40
2022-09-03T20:28:52.250Z,1.40
2022-09-03T20:31:31.566Z,1.63
2022-09-03T20:34:16.237Z,1.42
2022-09-03T20:37:12.055Z,1.63
2022-09-03T20:40:14.184Z,1.30
2022-09-03T20:42:56.792Z,1.90
2022-09-03T20:45:31.993Z,1.65
2022-09-03T20:48:17.097Z,1.65
2022-09-03T20:50:57.381Z,1.80
2022-09-03T20:54:02.109Z,1.50
2022-09-03T20:57:06.547Z,1.42
2022-09-03T21:00:12.478Z,1.73
2022-09-03T21:03:09.042Z,1.30
2022-09-03T21:05:58.141Z,1.58
2022-09-03T21:09:01.017Z,1.92
2022-09-03T21:12:21.580Z,1.55
2022-09-03T21:14:50.831Z,1.50
2022-09-03T21:17:42.158Z,1.60
2022-09-03T21:20:15.895Z,1.58
2022-09-03T21:22:53.793Z,1.65
2022-09-03T21:25:26.452Z,1.48
2022-09-03T21:27:59.494Z,1.40
2022-09-03T21:30:27.427Z,1.80
2022-09-03T21:33:04.748Z,1.48
2022-09-03T21:35:53.674Z,1.20
2022-09-03T21:38:31.220Z,1.52
2022-09-03T21:41:07.455Z,1.85
2022-09-03T21:43:45.299Z,1.38
2022-09-03T21:46:31.091Z,1.40
2022-09-03T21:49:07.294Z,1.30
2022-09-03T21:51:41.328Z,1.50
2022-09-03T21:54:14.440Z,1.58
2022-09-03T21:56:50.618Z,1.70
2022-09-03T21:59:45.171Z,1.65
2022-09-03T22:02:23.417Z,1.52
2022-09-03T22:04:51.041Z,1.63
2022-09-03T22:07:53.171Z,1.40
2022-09-03T22:10:40.536Z,1.52
2022-09-03T22:13:21.084Z,1.73
2022-09-03T22:15:55.789Z,1.30
2022-09-03T22:18:29.120Z,1.40
2022-09-03T22:21:20.523Z,2.05
2022-09-03T22:24:07.268Z,1.65
2022-09-03T22:26:49.160Z,1.67
2022-09-03T22:29:24.502Z,1.80
2022-09-03T22:32:09.749Z,1.70
2022-09-03T22:34:43.435Z,1.75
2022-09-03T22:37:22.844Z,1.70
2022-09-03T22:39:49.785Z,1.50
2022-09-03T22:42:32.321Z,1.48
2022-09-03T22:45:05.756Z,1.60
2022-09-03T22:47:44.716Z,1.70
2022-09-03T22:50:38.556Z,1.63
2022-09-03T22:53:25.901Z,1.45
2022-09-03T22:56:02.898Z,1.40
2022-09-03T22:58:37.125Z,1.60
2022-09-03T23:01:09.500Z,1.90
2022-09-03T23:03:50.967Z,1.60
2022-09-03T23:06:25.941Z,1.77
2022-09-03T23:08:59.877Z,1.55
2022-09-03T23:11:32.509Z,1.73
2022-09-03T23:14:04.744Z,2.00
2022-09-03T23:16:38.849Z,2.08
2022-09-03T23:21:58.943Z,1.70
2022-09-03T23:25:07.321Z,1.75
2022-09-03T23:27:50.614Z,2.10
2022-09-03T23:30:17.272Z,1.60
2022-09-03T23:32:44.893Z,1.80
2022-09-03T23:35:17.729Z,1.98
2022-09-03T23:38:25.571Z,1.77
2022-09-03T23:40:56.942Z,1.52
2022-09-03T23:43:44.302Z,1.73
2022-09-03T23:46:30.844Z,1.77
2022-09-03T23:49:16.496Z,1.70
2022-09-03T23:52:03.039Z,1.83
2022-09-03T23:54:39.740Z,1.67
2022-09-03T23:57:16.474Z,1.83
